Time;durP1;ratioP1;P1;durP2;ratioP2;P2;SDS_P1;SDS_P2;PMS_P1;PMS_P2;Temp;Humidity;BMP_temperature;BMP_pressure;BME280_temperature;BME280_humidity;BME280_pressure;Samples;Min_cycle;Max_cycle;Signal;HPM_P1;HPM_P2
2021/08/20 00:01:17;;;;;;;16.42;12.30;;;15.20;99.90;;;;;;6096365;23;20510;-74
2021/08/20 00:03:44;;;;;;;21.10;13.35;;;15.20;99.90;;;;;;6099568;23;20018;-76
2021/08/20 00:06:10;;;;;;;16.52;12.90;;;15.20;99.90;;;;;;6094841;23;20041;-74
2021/08/20 00:08:37;;;;;;;18.63;13.65;;;15.20;99.90;;;;;;6071488;23;20014;-74
2021/08/20 00:11:03;;;;;;;23.65;14.27;;;15.20;99.90;;;;;;6116399;23;20204;-74
2021/08/20 00:13:30;;;;;;;17.85;13.52;;;15.20;99.90;;;;;;6117745;23;20350;-74
2021/08/20 00:15:57;;;;;;;29.40;15.23;;;15.20;99.90;;;;;;6114833;23;20105;-74
2021/08/20 00:18:24;;;;;;;22.25;15.27;;;15.20;99.90;;;;;;6116242;23;20681;-75
2021/08/20 00:20:50;;;;;;;22.38;14.98;;;15.20;99.90;;;;;;6119011;23;20022;-74
2021/08/20 00:23:17;;;;;;;18.08;14.07;;;15.20;99.90;;;;;;6113556;23;20018;-74
2021/08/20 00:25:43;;;;;;;24.38;16.58;;;15.20;99.90;;;;;;6116121;23;20022;-74
2021/08/20 00:28:09;;;;;;;18.50;14.45;;;15.10;99.90;;;;;;6118811;23;20021;-74
2021/08/20 00:30:36;;;;;;;20.45;15.13;;;15.20;99.90;;;;;;6123516;23;20045;-73
2021/08/20 00:33:02;;;;;;;33.15;19.30;;;15.10;99.90;;;;;;6120848;23;20018;-74
2021/08/20 00:35:28;;;;;;;37.08;20.67;;;15.10;99.90;;;;;;6093385;23;20018;-74
2021/08/20 00:37:56;;;;;;;25.00;19.75;;;15.10;99.90;;;;;;6122625;23;20018;-75
2021/08/20 00:40:22;;;;;;;23.90;17.58;;;15.10;99.90;;;;;;6095164;23;20088;-74
2021/08/20 00:42:49;;;;;;;27.23;19.60;;;15.10;99.90;;;;;;6122329;23;20485;-75
2021/08/20 00:45:18;;;;;;;23.95;18.70;;;15.00;99.90;;;;;;6120699;23;20109;-75
2021/08/20 00:47:44;;;;;;;33.22;21.95;;;15.00;99.90;;;;;;6117499;23;20089;-75
2021/08/20 00:50:10;;;;;;;28.63;21.58;;;15.00;99.90;;;;;;6119931;23;20049;-75
2021/08/20 00:52:36;;;;;;;31.23;22.50;;;15.00;99.90;;;;;;6123686;23;20439;-75
2021/08/20 00:55:04;;;;;;;30.58;22.75;;;15.00;99.90;;;;;;6092758;23;20017;-75
2021/08/20 00:57:30;;;;;;;43.97;24.42;;;15.00;99.90;;;;;;6094970;23;20391;-75
2021/08/20 00:59:56;;;;;;;30.48;23.25;;;15.00;99.90;;;;;;6117411;23;20462;-75
2021/08/20 01:02:25;;;;;;;43.53;24.13;;;15.00;99.90;;;;;;6120168;23;20447;-75
2021/08/20 01:04:52;;;;;;;36.28;23.45;;;15.00;99.90;;;;;;6118929;23;20149;-75
2021/08/20 01:07:17;;;;;;;48.50;24.60;;;14.90;99.90;;;;;;6119773;23;20026;-75
2021/08/20 01:09:48;;;;;;;38.75;26.35;;;14.90;99.90;;;;;;6117988;23;20424;-75
2021/08/20 01:12:14;;;;;;;37.50;23.20;;;14.90;99.90;;;;;;6121961;23;20018;-75
2021/08/20 01:14:40;;;;;;;36.00;24.95;;;14.90;99.90;;;;;;6122927;23;20723;-75
2021/08/20 01:17:08;;;;;;;29.88;21.77;;;14.90;99.90;;;;;;6095121;23;20741;-75
2021/08/20 01:19:36;;;;;;;41.05;25.17;;;14.80;99.90;;;;;;6117931;23;20073;-75
2021/08/20 01:22:06;;;;;;;33.55;23.58;;;14.80;99.90;;;;;;6122537;23;20017;-75
2021/08/20 01:24:33;;;;;;;;;;;14.80;99.90;;;;;;6120474;23;20073;-75
2021/08/20 01:26:59;;;;;;;51.60;28.42;;;14.70;99.90;;;;;;6122834;23;19917;-75
2021/08/20 01:29:25;;;;;;;52.78;30.10;;;14.70;99.90;;;;;;6094693;23;20459;-75
2021/08/20 01:31:52;;;;;;;58.40;31.77;;;14.70;99.90;;;;;;6092194;23;20018;-75
2021/08/20 01:34:18;;;;;;;44.58;28.10;;;14.70;99.90;;;;;;6115243;23;20029;-74
2021/08/20 01:36:44;;;;;;;51.28;30.90;;;14.70;99.90;;;;;;6122034;23;20018;-74
2021/08/20 01:39:10;;;;;;;44.08;27.52;;;14.70;99.90;;;;;;6121087;23;20387;-74
2021/08/20 01:41:37;;;;;;;56.67;30.92;;;14.70;99.90;;;;;;6095395;23;20026;-74
2021/08/20 01:44:03;;;;;;;61.38;32.42;;;14.70;99.90;;;;;;6118366;23;20351;-71
2021/08/20 01:46:31;;;;;;;47.22;29.85;;;14.60;99.90;;;;;;6120126;23;20014;-71
2021/08/20 01:48:59;;;;;;;45.38;30.23;;;14.60;99.90;;;;;;6092373;23;20320;-71
2021/08/20 01:51:27;;;;;;;55.13;32.22;;;14.60;99.90;;;;;;6119503;23;20017;-71
2021/08/20 01:53:54;;;;;;;52.20;33.05;;;14.60;99.90;;;;;;6122579;23;20439;-71
2021/08/20 01:56:26;;;;;;;44.67;31.75;;;14.60;99.90;;;;;;6120304;23;20069;-72
2021/08/20 01:58:56;;;;;;;52.05;33.70;;;14.60;99.90;;;;;;6122675;23;20013;-71
2021/08/20 02:01:22;;;;;;;51.65;34.75;;;14.60;99.90;;;;;;6119412;23;20109;-72
2021/08/20 02:03:48;;;;;;;53.15;33.05;;;14.60;99.90;;;;;;6118403;23;20029;-72
2021/08/20 02:06:14;;;;;;;49.85;31.50;;;14.60;99.90;;;;;;6093581;23;20022;-72
2021/08/20 02:08:40;;;;;;;56.85;37.25;;;14.60;99.90;;;;;;6093430;23;20010;-72
2021/08/20 02:11:06;;;;;;;56.72;34.78;;;14.60;99.90;;;;;;6121721;23;20064;-75
2021/08/20 02:13:33;;;;;;;53.38;35.95;;;14.60;99.90;;;;;;6092485;23;20030;-75
2021/08/20 02:15:59;;;;;;;54.40;34.55;;;14.60;99.90;;;;;;6091673;23;20057;-75
2021/08/20 02:18:24;;;;;;;46.50;32.40;;;14.60;99.90;;;;;;6120633;23;20018;-75
2021/08/20 02:20:50;;;;;;;53.53;36.15;;;14.60;99.90;;;;;;6120601;23;20018;-75
2021/08/20 02:23:17;;;;;;;65.93;38.65;;;14.60;99.90;;;;;;6091860;23;20463;-75
2021/08/20 02:25:46;;;;;;;50.00;35.05;;;14.60;99.90;;;;;;6046336;23;20018;-74
2021/08/20 02:28:15;;;;;;;53.63;35.40;;;14.60;99.90;;;;;;6046241;23;20102;-74
2021/08/20 02:30:41;;;;;;;63.03;37.83;;;14.60;99.90;;;;;;6092676;23;20018;-74
2021/08/20 02:33:07;;;;;;;62.95;38.75;;;14.50;99.90;;;;;;6094656;23;20025;-75
2021/08/20 02:35:33;;;;;;;58.60;36.55;;;14.50;99.90;;;;;;6093270;23;20137;-75
2021/08/20 02:37:59;;;;;;;65.15;38.65;;;14.50;99.90;;;;;;6046383;23;20025;-75
2021/08/20 02:40:25;;;;;;;57.22;36.67;;;14.40;99.90;;;;;;6094786;23;20411;-75
2021/08/20 02:42:52;;;;;;;58.08;36.05;;;14.40;99.90;;;;;;6119544;23;20014;-74
2021/08/20 02:45:18;;;;;;;56.72;37.05;;;14.40;99.90;;;;;;6118721;23;20117;-74
2021/08/20 02:47:47;;;;;;;50.33;33.63;;;14.40;99.90;;;;;;6118625;23;20021;-75
2021/08/20 02:50:13;;;;;;;52.67;33.78;;;14.40;99.90;;;;;;6118824;23;20025;-75
2021/08/20 02:52:40;;;;;;;61.53;37.58;;;14.40;99.90;;;;;;6119269;23;20021;-75
2021/08/20 02:55:06;;;;;;;51.33;34.35;;;14.40;99.90;;;;;;6069254;23;20030;-75
2021/08/20 02:57:32;;;;;;;57.83;36.20;;;14.30;99.90;;;;;;6093559;23;20021;-75
2021/08/20 02:59:58;;;;;;;51.47;34.40;;;14.30;99.90;;;;;;6094277;23;20069;-75
2021/08/20 03:02:24;;;;;;;71.05;38.45;;;14.30;99.90;;;;;;6094782;23;20105;-75
2021/08/20 03:04:50;;;;;;;49.67;34.67;;;14.30;99.90;;;;;;6089585;23;20018;-75
2021/08/20 03:07:17;;;;;;;60.67;39.00;;;14.20;99.90;;;;;;6118047;23;20443;-75
2021/08/20 03:09:46;;;;;;;56.70;36.58;;;14.20;99.90;;;;;;6117708;23;20042;-75
2021/08/20 03:12:12;;;;;;;57.03;35.72;;;14.20;99.90;;;;;;6094009;23;20018;-75
2021/08/20 03:14:37;;;;;;;56.83;34.58;;;14.20;99.90;;;;;;6092227;23;20074;-74
2021/08/20 03:17:04;;;;;;;56.67;36.72;;;14.20;99.90;;;;;;6092999;23;20447;-75
2021/08/20 03:19:29;;;;;;;55.47;35.63;;;14.20;99.90;;;;;;6120204;23;20403;-75
2021/08/20 03:21:58;;;;;;;51.65;34.10;;;14.10;99.90;;;;;;6095416;23;20018;-75
2021/08/20 03:24:24;;;;;;;52.90;34.05;;;14.10;99.90;;;;;;6094058;23;20101;-75
2021/08/20 03:26:50;;;;;;;56.60;36.17;;;14.10;99.90;;;;;;6117046;23;20458;-74
2021/08/20 03:29:16;;;;;;;50.15;34.72;;;14.10;99.90;;;;;;6120049;23;20486;-75
2021/08/20 03:31:45;;;;;;;57.47;35.80;;;14.20;99.90;;;;;;6121417;23;20018;-75
2021/08/20 03:34:11;;;;;;;69.68;38.50;;;14.20;99.90;;;;;;6117797;23;20018;-75
2021/08/20 03:36:38;;;;;;;62.35;37.85;;;14.10;99.90;;;;;;6093362;23;20018;-74
2021/08/20 03:39:04;;;;;;;69.35;39.80;;;14.10;99.90;;;;;;6092504;23;20021;-74
2021/08/20 03:41:31;;;;;;;61.15;38.35;;;14.10;99.90;;;;;;6092731;23;20265;-74
2021/08/20 03:43:57;;;;;;;71.63;40.58;;;14.10;99.90;;;;;;6121569;23;20463;-74
2021/08/20 03:46:23;;;;;;;53.03;34.50;;;14.10;99.90;;;;;;6118225;23;20094;-75
2021/08/20 03:48:50;;;;;;;63.70;38.38;;;14.10;99.90;;;;;;6119852;23;20037;-75
2021/08/20 03:51:15;;;;;;;70.07;40.75;;;14.10;99.90;;;;;;6069151;23;20105;-75
2021/08/20 03:53:41;;;;;;;59.65;39.38;;;14.10;99.90;;;;;;6088076;23;20475;-78
2021/08/20 03:56:10;;;;;;;62.95;41.05;;;14.10;99.90;;;;;;6092065;23;20026;-75
2021/08/20 03:58:36;;;;;;;81.93;43.95;;;14.10;99.90;;;;;;6117195;23;20339;-76
2021/08/20 04:01:06;;;;;;;53.85;36.05;;;14.10;99.90;;;;;;6115887;23;20028;-74
2021/08/20 04:03:32;;;;;;;76.80;43.65;;;14.10;99.90;;;;;;6083781;23;20029;-75
2021/08/20 04:05:58;;;;;;;67.13;42.22;;;14.10;99.90;;;;;;6071281;23;20017;-75
2021/08/20 04:08:24;;;;;;;59.92;41.42;;;14.20;99.90;;;;;;6091986;23;20076;-76
2021/08/20 04:10:50;;;;;;;65.13;42.60;;;14.20;99.90;;;;;;6091390;23;20225;-76
2021/08/20 04:13:17;;;;;;;64.85;39.17;;;14.10;99.90;;;;;;6117454;23;20096;-75
2021/08/20 04:15:43;;;;;;;66.20;42.65;;;14.20;99.90;;;;;;6066917;23;20021;-76
2021/08/20 04:18:13;;;;;;;61.60;41.88;;;14.20;99.90;;;;;;6095914;23;20014;-76
2021/08/20 04:20:38;;;;;;;56.58;37.50;;;14.20;99.90;;;;;;6072170;23;20014;-75
2021/08/20 04:23:05;;;;;;;59.78;40.78;;;14.20;99.90;;;;;;6091813;23;20018;-76
2021/08/20 04:25:32;;;;;;;75.90;43.35;;;14.20;99.90;;;;;;6069777;23;20018;-75
2021/08/20 04:27:58;;;;;;;61.83;40.13;;;14.20;99.90;;;;;;6096278;23;20073;-75
2021/08/20 04:30:24;;;;;;;72.60;42.75;;;14.20;99.90;;;;;;6072159;23;20077;-75
2021/08/20 04:32:51;;;;;;;64.32;41.92;;;14.20;99.90;;;;;;6123639;23;20014;-74
2021/08/20 04:35:17;;;;;;;67.82;42.30;;;14.20;99.90;;;;;;6092453;23;20018;-77
2021/08/20 04:37:43;;;;;;;78.00;43.53;;;14.20;99.90;;;;;;6046135;23;20017;-75
2021/08/20 04:40:09;;;;;;;62.00;40.38;;;14.20;99.90;;;;;;6071805;23;20014;-76
2021/08/20 04:42:36;;;;;;;70.97;43.75;;;14.20;99.90;;;;;;6121736;23;20101;-76
2021/08/20 04:45:03;;;;;;;63.35;41.42;;;14.20;99.90;;;;;;6093381;23;20092;-76
2021/08/20 04:47:29;;;;;;;85.20;44.00;;;14.20;99.90;;;;;;6121514;23;20469;-76
2021/08/20 04:49:55;;;;;;;68.25;42.83;;;14.20;99.90;;;;;;6119153;23;20042;-76
2021/08/20 04:52:21;;;;;;;62.47;41.58;;;14.20;99.90;;;;;;6095052;23;20045;-75
2021/08/20 04:54:48;;;;;;;78.05;43.55;;;14.20;99.90;;;;;;6098170;23;20025;-75
2021/08/20 04:57:17;;;;;;;70.05;41.65;;;14.20;99.90;;;;;;6095512;23;20042;-74
2021/08/20 04:59:55;;;;;;;70.22;42.97;;;14.20;99.90;;;;;;6098115;23;20096;-74
2021/08/20 05:02:24;;;;;;;65.35;41.50;;;14.20;99.90;;;;;;6067283;23;20037;-77
2021/08/20 05:04:50;;;;;;;65.65;40.88;;;14.20;99.90;;;;;;6117802;23;20045;-76
2021/08/20 05:07:19;;;;;;;62.28;39.20;;;14.20;99.90;;;;;;6121097;23;20292;-74
2021/08/20 05:09:45;;;;;;;67.60;41.45;;;14.20;99.90;;;;;;6119642;23;20028;-74
2021/08/20 05:12:11;;;;;;;60.40;38.72;;;14.20;99.90;;;;;;6119866;23;20022;-74
2021/08/20 05:14:38;;;;;;;74.65;43.35;;;14.20;99.90;;;;;;6119304;23;20028;-74
2021/08/20 05:17:04;;;;;;;55.75;38.05;;;14.20;99.90;;;;;;6118009;23;20101;-76
2021/08/20 05:19:31;;;;;;;60.92;40.63;;;14.20;99.90;;;;;;6115334;23;20025;-76
2021/08/20 05:21:56;;;;;;;56.03;38.15;;;14.20;99.90;;;;;;6119743;23;20070;-76
2021/08/20 05:24:22;;;;;;;68.35;40.50;;;14.20;99.90;;;;;;6119922;23;20042;-74
2021/08/20 05:26:48;;;;;;;53.63;36.20;;;14.20;99.90;;;;;;6118187;23;20071;-74
2021/08/20 05:29:14;;;;;;;52.35;36.78;;;14.20;99.90;;;;;;6092576;23;20022;-74
2021/08/20 05:31:40;;;;;;;56.95;37.80;;;14.20;99.90;;;;;;6093895;23;20018;-74
2021/08/20 05:34:06;;;;;;;58.40;37.33;;;14.20;99.90;;;;;;6115319;23;20022;-74
2021/08/20 05:36:33;;;;;;;57.28;36.10;;;14.10;99.90;;;;;;6093842;23;20080;-74
2021/08/20 05:38:58;;;;;;;69.70;39.50;;;14.10;99.90;;;;;;6113815;23;20560;-76
2021/08/20 05:41:24;;;;;;;69.03;39.95;;;14.10;99.90;;;;;;6117243;23;20078;-75
2021/08/20 05:43:50;;;;;;;67.93;39.75;;;14.10;99.90;;;;;;6116916;23;20098;-74
2021/08/20 05:46:16;;;;;;;58.47;36.58;;;14.10;99.90;;;;;;6117260;23;20045;-73
2021/08/20 05:48:45;;;;;;;52.13;34.30;;;14.10;99.90;;;;;;6091956;23;20033;-73
2021/08/20 05:51:11;;;;;;;79.20;41.90;;;14.10;99.90;;;;;;6096424;23;20513;-73
2021/08/20 05:53:37;;;;;;;71.32;39.22;;;14.10;99.90;;;;;;6092705;23;20026;-73
2021/08/20 05:56:04;;;;;;;63.78;38.53;;;14.10;99.90;;;;;;6119937;23;20542;-73
2021/08/20 05:58:30;;;;;;;52.25;36.88;;;14.10;99.90;;;;;;6092094;23;20021;-73
2021/08/20 06:00:56;;;;;;;65.28;38.97;;;14.10;99.90;;;;;;6094613;23;20505;-73
2021/08/20 06:03:25;;;;;;;54.70;36.10;;;14.20;99.90;;;;;;6067916;23;20101;-74
2021/08/20 06:05:52;;;;;;;59.03;38.55;;;14.20;99.90;;;;;;6091697;23;20021;-74
2021/08/20 06:08:18;;;;;;;51.58;35.08;;;14.20;99.90;;;;;;6090467;23;20022;-74
2021/08/20 06:10:44;;;;;;;61.88;40.00;;;14.30;99.90;;;;;;6118951;23;20518;-74
2021/08/20 06:13:14;;;;;;;64.68;41.25;;;14.30;99.90;;;;;;6093318;23;20518;-74
2021/08/20 06:15:40;;;;;;;;;;;14.40;99.90;;;;;;6118190;23;20465;-74
2021/08/20 06:18:09;;;;;;;86.32;43.42;;;14.50;99.90;;;;;;6119180;23;19920;-74
2021/08/20 06:20:35;;;;;;;59.63;38.85;;;14.60;99.90;;;;;;6092373;23;20358;-74
2021/08/20 06:23:01;;;;;;;58.45;38.40;;;14.60;99.90;;;;;;6094740;23;20049;-75
2021/08/20 06:25:27;;;;;;;66.45;39.38;;;14.70;99.90;;;;;;6116628;23;20101;-74
2021/08/20 06:27:53;;;;;;;57.45;38.58;;;14.70;99.90;;;;;;6096287;23;20048;-75
2021/08/20 06:30:19;;;;;;;62.22;39.95;;;14.70;99.90;;;;;;6120082;23;20048;-75
2021/08/20 06:32:45;;;;;;;54.35;37.20;;;14.70;99.90;;;;;;6095635;23;20116;-74
2021/08/20 06:35:11;;;;;;;69.80;40.08;;;14.80;99.90;;;;;;6090424;23;20018;-75
2021/08/20 06:37:37;;;;;;;69.93;41.63;;;14.80;99.90;;;;;;6091470;23;20044;-75
2021/08/20 06:40:03;;;;;;;56.30;36.90;;;14.90;99.90;;;;;;6117549;23;20018;-75
2021/08/20 06:42:29;;;;;;;73.03;41.03;;;14.90;99.90;;;;;;6117429;23;20088;-75
2021/08/20 06:44:55;;;;;;;64.57;40.30;;;15.00;99.90;;;;;;6091411;23;20034;-75
2021/08/20 06:47:21;;;;;;;64.20;40.13;;;15.10;99.90;;;;;;6116689;23;20029;-75
2021/08/20 06:49:47;;;;;;;57.05;37.70;;;15.10;99.90;;;;;;6119256;23;20443;-75
2021/08/20 06:52:13;;;;;;;60.17;37.80;;;15.20;99.90;;;;;;6115066;23;20053;-74
2021/08/20 06:54:40;;;;;;;60.08;39.13;;;15.30;99.90;;;;;;6112859;23;20133;-74
2021/08/20 06:57:06;;;;;;;60.03;38.03;;;15.40;99.90;;;;;;6109126;23;20022;-74
2021/08/20 06:59:32;;;;;;;62.28;39.00;;;15.40;99.90;;;;;;6090003;23;20403;-75
2021/08/20 07:01:58;;;;;;;57.38;36.55;;;15.50;99.90;;;;;;6094840;23;20022;-74
2021/08/20 07:04:24;;;;;;;51.63;35.33;;;15.50;99.90;;;;;;6100395;23;20022;-74
2021/08/20 07:06:53;;;;;;;58.70;37.90;;;15.60;99.90;;;;;;6066787;23;20013;-74
2021/08/20 07:09:19;;;;;;;57.58;37.90;;;15.60;99.90;;;;;;6092150;23;20479;-73
2021/08/20 07:11:45;;;;;;;47.53;35.13;;;15.60;99.90;;;;;;6118397;23;20018;-74
2021/08/20 07:14:11;;;;;;;46.45;32.53;;;15.80;99.90;;;;;;6088145;23;20022;-74
2021/08/20 07:16:37;;;;;;;47.78;35.83;;;16.00;99.90;;;;;;6066277;23;20057;-74
2021/08/20 07:19:03;;;;;;;47.45;36.45;;;16.20;99.90;;;;;;6088386;23;20022;-74
2021/08/20 07:21:29;;;;;;;52.42;36.88;;;16.30;99.90;;;;;;6115352;23;20029;-74
2021/08/20 07:23:54;;;;;;;47.70;36.47;;;16.40;99.90;;;;;;6093739;23;20096;-74
2021/08/20 07:26:21;;;;;;;48.25;36.42;;;16.50;99.90;;;;;;6091179;23;20557;-74
2021/08/20 07:28:47;;;;;;;50.25;37.53;;;16.60;99.90;;;;;;6093450;23;20033;-74
2021/08/20 07:31:13;;;;;;;48.30;36.17;;;16.60;99.90;;;;;;6089990;23;20459;-74
2021/08/20 07:33:42;;;;;;;50.20;37.70;;;16.60;99.90;;;;;;6115553;23;20527;-75
2021/08/20 07:36:10;;;;;;;50.78;38.03;;;16.70;99.90;;;;;;6117365;23;20021;-74
2021/08/20 07:38:42;;;;;;;47.72;38.08;;;16.70;99.90;;;;;;6115466;23;20340;-75
2021/08/20 07:41:08;;;;;;;53.00;38.97;;;16.80;99.90;;;;;;6087559;23;20446;-74
2021/08/20 07:43:34;;;;;;;50.75;39.25;;;16.80;99.90;;;;;;6114203;23;20097;-74
2021/08/20 07:46:00;;;;;;;48.72;39.30;;;16.80;99.90;;;;;;6088161;23;20044;-73
2021/08/20 07:48:26;;;;;;;45.25;37.50;;;16.80;99.90;;;;;;6119300;23;20018;-73
2021/08/20 07:50:52;;;;;;;51.00;40.60;;;16.70;99.90;;;;;;6113037;23;20017;-73
2021/08/20 07:53:19;;;;;;;50.15;39.08;;;16.80;99.90;;;;;;6118587;23;20018;-73
2021/08/20 07:55:45;;;;;;;54.58;41.40;;;16.70;99.90;;;;;;6091908;23;20021;-73
2021/08/20 07:58:11;;;;;;;47.55;38.85;;;16.70;99.90;;;;;;6094804;23;20065;-73
2021/08/20 08:00:37;;;;;;;55.78;41.25;;;16.70;99.90;;;;;;6090940;23;20049;-73
2021/08/20 08:03:03;;;;;;;53.97;39.75;;;16.80;99.90;;;;;;6118241;23;20394;-73
2021/08/20 08:05:29;;;;;;;48.58;38.22;;;16.90;99.90;;;;;;6094220;23;20025;-73
2021/08/20 08:07:56;;;;;;;52.63;40.30;;;16.90;99.90;;;;;;6119360;23;20202;-73
2021/08/20 08:10:23;;;;;;;58.47;41.83;;;17.00;99.90;;;;;;6092541;23;20018;-73
2021/08/20 08:12:50;;;;;;;53.80;41.08;;;17.00;99.90;;;;;;6118731;23;20343;-73
2021/08/20 08:15:16;;;;;;;55.50;41.72;;;17.00;99.90;;;;;;6118902;23;20366;-73
2021/08/20 08:17:45;;;;;;;53.35;40.78;;;17.00;99.90;;;;;;6118675;23;20375;-73
2021/08/20 08:20:13;;;;;;;54.78;41.50;;;17.10;99.90;;;;;;6118944;23;20049;-74
2021/08/20 08:22:40;;;;;;;60.63;46.05;;;17.00;99.90;;;;;;6091590;23;20324;-73
2021/08/20 08:25:07;;;;;;;52.28;39.70;;;17.10;99.90;;;;;;6090154;23;20022;-74
2021/08/20 08:27:48;;;;;;;55.33;42.08;;;17.10;99.90;;;;;;6118389;23;20459;-73
2021/08/20 08:30:13;;;;;;;54.60;43.58;;;17.10;99.90;;;;;;6118583;23;20074;-73
2021/08/20 08:32:39;;;;;;;51.97;41.90;;;17.20;99.90;;;;;;6118663;23;20022;-73
2021/08/20 08:35:06;;;;;;;63.78;44.15;;;17.20;99.90;;;;;;6092423;23;20018;-73
2021/08/20 08:37:32;;;;;;;60.30;44.90;;;17.20;99.90;;;;;;6090323;23;20060;-73
2021/08/20 08:39:57;;;;;;;54.45;42.15;;;17.20;99.90;;;;;;6071347;23;20452;-74
2021/08/20 08:42:23;;;;;;;62.20;44.72;;;17.30;99.90;;;;;;6094968;23;20045;-74
2021/08/20 08:44:49;;;;;;;58.10;42.08;;;17.30;99.90;;;;;;6071251;23;20018;-73
2021/08/20 08:47:16;;;;;;;54.20;41.75;;;17.30;99.90;;;;;;6067528;23;20124;-73
2021/08/20 08:49:44;;;;;;;48.10;39.67;;;17.30;99.90;;;;;;6117748;23;20343;-73
2021/08/20 08:52:10;;;;;;;56.40;42.47;;;17.40;99.90;;;;;;6090986;23;20021;-73
2021/08/20 08:54:37;;;;;;;53.88;40.55;;;17.40;99.90;;;;;;6045859;23;20489;-73
2021/08/20 08:57:06;;;;;;;52.55;41.17;;;17.50;99.90;;;;;;6115574;23;20075;-74
2021/08/20 08:59:31;;;;;;;52.33;40.28;;;17.50;99.90;;;;;;6069208;23;20420;-74
2021/08/20 09:01:57;;;;;;;52.67;40.30;;;17.40;99.90;;;;;;6072348;23;20017;-74
2021/08/20 09:04:23;;;;;;;58.15;42.33;;;17.50;99.90;;;;;;6057161;23;20026;-74
2021/08/20 09:06:51;;;;;;;51.35;41.03;;;17.50;99.90;;;;;;6113769;23;20041;-75
2021/08/20 09:09:23;;;;;;;54.30;41.05;;;17.50;99.90;;;;;;6117041;23;20340;-74
2021/08/20 09:11:58;;;;;;;51.15;40.67;;;17.50;99.90;;;;;;6115624;23;20409;-73
2021/08/20 09:14:32;;;;;;;55.08;40.92;;;17.60;99.90;;;;;;6119706;23;20149;-76
2021/08/20 09:16:58;;;;;;;58.63;40.50;;;17.60;99.90;;;;;;6118865;23;20022;-72
2021/08/20 09:19:25;;;;;;;53.35;39.58;;;17.50;99.90;;;;;;6117114;23;20490;-72
2021/08/20 09:21:54;;;;;;;47.65;36.30;;;17.60;99.90;;;;;;6113778;23;20018;-71
2021/08/20 09:24:32;;;;;;;53.33;38.85;;;17.60;99.90;;;;;;6116822;23;20048;-74
2021/08/20 09:27:21;;;;;;;50.25;36.97;;;17.70;99.90;;;;;;6117116;23;20028;-74
2021/08/20 09:30:11;;;;;;;51.07;37.33;;;17.80;99.90;;;;;;6070677;23;20419;-74
2021/08/20 09:32:46;;;;;;;48.42;35.55;;;17.90;99.90;;;;;;6118166;23;20250;-74
2021/08/20 09:35:12;;;;;;;45.67;34.17;;;18.10;99.90;;;;;;6115324;23;20402;-73
2021/08/20 09:37:39;;;;;;;49.42;36.13;;;18.20;99.90;;;;;;6117864;23;20018;-74
2021/08/20 09:40:09;;;;;;;45.63;34.30;;;18.40;99.90;;;;;;6118943;23;20092;-74
2021/08/20 09:42:35;;;;;;;44.60;33.47;;;18.50;99.90;;;;;;6118095;23;20022;-74
2021/08/20 09:45:12;;;;;;;45.08;33.60;;;18.50;99.90;;;;;;6120325;23;20029;-74
2021/08/20 09:47:43;;;;;;;39.17;31.77;;;18.60;99.90;;;;;;6094201;23;20478;-74
2021/08/20 09:50:09;;;;;;;40.47;32.40;;;18.60;99.90;;;;;;6118185;23;20145;-74
2021/08/20 09:52:35;;;;;;;44.67;32.85;;;18.70;99.90;;;;;;6114158;23;20351;-74
2021/08/20 09:55:02;;;;;;;37.25;29.02;;;18.70;99.90;;;;;;6115752;23;20098;-74
2021/08/20 09:57:28;;;;;;;35.83;30.98;;;18.90;99.90;;;;;;6044300;23;20085;-74
2021/08/20 09:59:58;;;;;;;37.38;30.23;;;19.00;99.90;;;;;;6119967;23;20038;-74
2021/08/20 10:02:26;;;;;;;38.30;29.48;;;19.10;99.90;;;;;;6120897;23;20026;-74
2021/08/20 10:04:59;;;;;;;34.75;27.75;;;19.10;99.90;;;;;;6119958;23;20022;-74
2021/08/20 10:07:28;;;;;;;30.98;25.63;;;19.20;99.90;;;;;;6067988;23;20026;-75
2021/08/20 10:09:55;;;;;;;32.88;27.88;;;19.30;99.90;;;;;;6093055;23;20335;-75
2021/08/20 10:12:24;;;;;;;28.33;25.33;;;19.50;99.90;;;;;;6117557;23;20032;-74
2021/08/20 10:14:51;;;;;;;31.35;26.10;;;19.60;99.90;;;;;;6089300;23;20029;-75
2021/08/20 10:17:17;;;;;;;26.75;21.92;;;19.70;99.90;;;;;;6118624;23;20025;-75
2021/08/20 10:19:58;;;;;;;26.23;23.42;;;19.80;99.90;;;;;;6114739;23;20068;-75
2021/08/20 10:22:25;;;;;;;26.85;22.13;;;19.80;99.90;;;;;;6094602;23;20017;-73
2021/08/20 10:24:51;;;;;;;26.33;22.02;;;19.90;99.90;;;;;;6064066;23;20022;-74
2021/08/20 10:27:18;;;;;;;23.00;20.35;;;20.00;99.90;;;;;;6114864;23;20029;-74
2021/08/20 10:29:47;;;;;;;24.08;21.35;;;20.00;99.90;;;;;;6067935;23;20455;-74
2021/08/20 10:32:15;;;;;;;20.98;18.73;;;20.10;99.90;;;;;;6113564;23;20517;-74
2021/08/20 10:34:42;;;;;;;21.10;17.50;;;20.10;99.90;;;;;;6117321;23;20029;-74
2021/08/20 10:37:30;;;;;;;19.33;17.27;;;20.10;99.90;;;;;;6068182;23;20203;-74
2021/08/20 10:40:00;;;;;;;22.90;17.50;;;20.00;99.90;;;;;;6069787;23;20387;-74
2021/08/20 10:42:37;;;;;;;20.25;17.17;;;20.00;99.90;;;;;;6090923;23;20475;-73
2021/08/20 10:45:08;;;;;;;20.73;17.98;;;19.90;99.90;;;;;;6095586;23;20913;-74
2021/08/20 10:47:34;;;;;;;21.08;18.38;;;19.80;99.90;;;;;;6089310;23;20024;-74
2021/08/20 10:50:14;;;;;;;21.75;18.10;;;19.80;99.90;;;;;;6090468;23;20026;-74
2021/08/20 10:52:51;;;;;;;25.63;22.02;;;19.70;99.90;;;;;;6119426;23;20025;-74
2021/08/20 10:55:30;;;;;;;28.20;22.52;;;19.60;99.90;;;;;;6115676;23;20096;-74
2021/08/20 10:57:59;;;;;;;24.95;21.80;;;19.60;99.90;;;;;;6123186;23;20556;-73
2021/08/20 11:00:28;;;;;;;24.38;21.88;;;19.60;99.90;;;;;;6089780;23;20518;-74
2021/08/20 11:02:59;;;;;;;24.20;20.85;;;19.70;99.90;;;;;;6091391;23;20465;-74
2021/08/20 11:05:49;;;;;;;24.60;22.10;;;19.80;99.90;;;;;;6086839;23;20121;-74
2021/08/20 11:08:27;;;;;;;25.88;23.17;;;20.00;99.90;;;;;;6087771;23;20054;-73
2021/08/20 11:10:58;;;;;;;25.65;22.50;;;20.10;99.90;;;;;;6113058;23;20207;-74
2021/08/20 11:13:23;;;;;;;22.58;20.27;;;20.30;99.90;;;;;;6119184;23;20211;-75
2021/08/20 11:15:51;;;;;;;24.42;21.83;;;20.50;99.90;;;;;;6113524;23;20026;-75
2021/08/20 11:18:41;;;;;;;24.20;21.48;;;20.60;99.90;;;;;;6088744;23;20100;-75
2021/08/20 11:21:07;;;;;;;;;;;20.70;99.90;;;;;;6121890;23;20073;-75
2021/08/20 11:23:33;;;;;;;20.15;18.13;;;20.70;99.90;;;;;;6092437;23;19921;-75
2021/08/20 11:26:03;;;;;;;17.10;15.27;;;20.70;99.90;;;;;;6093575;23;20022;-74
2021/08/20 11:28:39;;;;;;;17.75;15.85;;;20.70;99.90;;;;;;6118686;23;20032;-75
2021/08/20 11:31:08;;;;;;;17.63;14.25;;;20.80;99.90;;;;;;6092880;23;20320;-74
2021/08/20 11:33:35;;;;;;;16.73;13.80;;;21.00;99.90;;;;;;6089854;23;20022;-75
2021/08/20 11:36:12;;;;;;;18.60;13.65;;;21.10;99.90;;;;;;6091306;23;20018;-74
2021/08/20 11:38:47;;;;;;;13.50;12.13;;;21.40;99.90;;;;;;6113806;23;20116;-75
2021/08/20 11:41:23;;;;;;;21.15;12.23;;;21.60;99.90;;;;;;6120453;23;20014;-74
2021/08/20 11:43:58;;;;;;;11.95;10.40;;;21.60;99.90;;;;;;6090336;23;20026;-74
2021/08/20 11:46:26;;;;;;;13.07;11.57;;;21.50;99.90;;;;;;6088287;23;20542;-74
2021/08/20 11:48:57;;;;;;;12.90;11.18;;;21.30;99.90;;;;;;6093598;23;20014;-75
2021/08/20 11:51:26;;;;;;;15.25;11.23;;;21.20;99.90;;;;;;6090114;23;20108;-74
2021/08/20 11:53:52;;;;;;;14.50;11.30;;;21.00;99.90;;;;;;6119607;23;20455;-74
2021/08/20 11:56:19;;;;;;;13.50;10.70;;;20.70;99.90;;;;;;6094074;23;20044;-74
2021/08/20 11:58:44;;;;;;;15.15;12.10;;;20.60;99.90;;;;;;6115747;23;20018;-74
2021/08/20 12:01:23;;;;;;;12.20;10.90;;;20.50;99.90;;;;;;6067928;23;20018;-74
2021/08/20 12:03:54;;;;;;;10.63;9.52;;;20.40;99.90;;;;;;6118078;23;20025;-75
2021/08/20 12:06:20;;;;;;;10.48;9.18;;;20.40;99.90;;;;;;6111568;23;20026;-75
2021/08/20 12:08:47;;;;;;;14.00;8.57;;;20.40;99.90;;;;;;6089982;23;20093;-75
2021/08/20 12:11:18;;;;;;;8.93;8.02;;;20.50;99.90;;;;;;6090792;23;20037;-75
2021/08/20 12:13:56;;;;;;;9.98;7.93;;;20.80;99.90;;;;;;6118680;23;20018;-75
2021/08/20 12:16:44;;;;;;;11.82;7.30;;;21.10;99.90;;;;;;6114740;23;20132;-74
2021/08/20 12:19:43;;;;;;;9.18;5.57;;;21.30;99.90;;;;;;6068509;23;20459;-75
2021/08/20 12:22:11;;;;;;;7.85;6.00;;;21.20;99.90;;;;;;6113109;23;20101;-74
2021/08/20 12:24:45;;;;;;;9.02;6.22;;;21.10;99.90;;;;;;6118198;23;20022;-74
2021/08/20 12:27:15;;;;;;;9.35;6.20;;;21.00;99.90;;;;;;6117873;23;20108;-76
2021/08/20 12:29:41;;;;;;;12.52;7.40;;;20.80;99.90;;;;;;6066951;23;20324;-74
2021/08/20 12:32:07;;;;;;;10.75;7.90;;;20.70;99.90;;;;;;6064109;23;20471;-75